Lime Valley, Pennsylvania
Current Conditions -  °F | °C
As of 5:53 PM on Thursday 20 Nov 2014 (Local Time) from KLNS Reporting Station
Clear Clear  
Wind Chill: 26°   Ceiling: Unl
Heat Index: 34°   Visibility: 10mi
Dew Point: 15°   Wind: 10mph
Humidity: 46%   Direction: 290°WNW
Pressure: 29.96"   Gusts: NA
Location:  39.9601°N, 76.2683°W
Report Text: KLNS 202253Z 29009KT 10SM CLR 01/M09 A2996 RMK AO2 SLP148 T00111094
Loading
Personal Weather Stations






























Interactive Weather Map New forecast layout! Learn more

10-Day Weather Forecast

Advertisements
Track Severe Weather on mobile